createdAt,value
2019-05-03T00:01:54.842Z,8.64
2019-05-03T00:04:23.162Z,8.63
2019-05-03T00:06:52.122Z,8.61
2019-05-03T00:09:22.531Z,8.59
2019-05-03T00:11:52.717Z,8.55
2019-05-03T00:14:21.812Z,8.54
2019-05-03T00:16:52.212Z,8.53
2019-05-03T00:19:21.963Z,8.53
2019-05-03T00:21:52.579Z,8.50
2019-05-03T00:24:22.593Z,8.49
2019-05-03T00:26:51.645Z,8.50
2019-05-03T00:29:21.865Z,8.40
2019-05-03T00:31:51.674Z,8.35
2019-05-03T00:34:24.805Z,8.35
2019-05-03T00:36:54.735Z,8.30
2019-05-03T00:39:27.312Z,8.29
2019-05-03T00:41:55.649Z,8.29
2019-05-03T00:44:23.943Z,8.30
2019-05-03T00:46:52.221Z,8.29
2019-05-03T00:49:22.507Z,8.23
2019-05-03T00:51:51.677Z,8.20
2019-05-03T00:54:20.030Z,8.17
2019-05-03T00:56:48.456Z,8.13
2019-05-03T00:59:16.809Z,8.13
2019-05-03T01:01:45.272Z,8.11
2019-05-03T01:04:13.857Z,8.11
2019-05-03T01:06:42.542Z,8.04
2019-05-03T01:09:18.250Z,8.02
2019-05-03T01:11:46.727Z,7.99
2019-05-03T01:14:15.168Z,7.98
2019-05-03T01:16:43.455Z,7.86
2019-05-03T01:19:12.125Z,7.78
2019-05-03T01:21:42.177Z,7.75
2019-05-03T01:24:12.296Z,7.68
2019-05-03T01:26:42.043Z,7.61
2019-05-03T01:29:12.171Z,7.55
2019-05-03T01:31:42.173Z,7.48
2019-05-03T01:34:12.403Z,7.41
2019-05-03T01:36:42.705Z,7.34
2019-05-03T01:39:12.757Z,7.27
2019-05-03T01:41:41.683Z,7.21
2019-05-03T01:44:10.251Z,7.19
2019-05-03T01:46:38.581Z,7.17
2019-05-03T01:49:08.532Z,7.11
2019-05-03T01:51:52.535Z,7.07
2019-05-03T01:54:20.690Z,7.02
2019-05-03T01:56:56.875Z,6.96
2019-05-03T01:59:19.098Z,6.94
2019-05-03T02:01:49.017Z,6.87
2019-05-03T02:04:32.239Z,6.84
2019-05-03T02:07:02.307Z,6.88
2019-05-03T02:09:32.254Z,6.83
2019-05-03T02:12:02.145Z,6.86
2019-05-03T02:14:31.743Z,6.87
2019-05-03T02:17:01.819Z,6.89
2019-05-03T02:19:30.242Z,6.90
2019-05-03T02:21:58.521Z,6.89
2019-05-03T02:24:26.816Z,6.95
2019-05-03T02:26:55.401Z,6.96
2019-05-03T02:29:23.779Z,6.97
2019-05-03T02:31:53.496Z,6.97
2019-05-03T02:34:23.902Z,6.97
2019-05-03T02:36:53.787Z,6.97
2019-05-03T02:39:23.048Z,6.96
2019-05-03T02:41:58.426Z,6.94
2019-05-03T02:44:22.592Z,6.93
2019-05-03T02:47:07.625Z,6.88
2019-05-03T02:49:37.550Z,6.84
2019-05-03T02:52:06.612Z,6.80
2019-05-03T02:54:35.405Z,6.78
2019-05-03T02:57:06.344Z,6.71
2019-05-03T02:59:34.730Z,6.65
2019-05-03T03:02:06.115Z,6.61
2019-05-03T03:04:35.373Z,6.57
2019-05-03T03:07:05.502Z,6.53
2019-05-03T03:09:36.056Z,6.48
2019-05-03T03:12:06.083Z,6.43
2019-05-03T03:14:36.283Z,6.39
2019-05-03T03:17:06.663Z,6.37
2019-05-03T03:19:35.281Z,6.32
2019-05-03T03:22:05.883Z,6.28
2019-05-03T03:24:36.155Z,6.20
2019-05-03T03:27:06.441Z,6.20
2019-05-03T03:29:35.868Z,6.16
2019-05-03T03:32:22.702Z,6.10
2019-05-03T03:35:03.533Z,6.09
2019-05-03T03:37:30.219Z,6.06
2019-05-03T03:39:58.808Z,5.98
2019-05-03T03:42:28.297Z,5.99
2019-05-03T03:44:56.617Z,5.96
2019-05-03T03:47:27.231Z,5.90
2019-05-03T03:49:55.379Z,5.86
2019-05-03T03:52:25.511Z,5.85
2019-05-03T03:54:55.419Z,5.80
2019-05-03T03:57:25.298Z,5.78
2019-05-03T03:59:56.009Z,5.73
2019-05-03T04:02:26.507Z,5.64
2019-05-03T04:04:56.152Z,5.58
2019-05-03T04:07:26.165Z,5.55
2019-05-03T04:09:56.193Z,5.56
2019-05-03T04:12:26.592Z,5.53
2019-05-03T04:15:10.822Z,5.52
2019-05-03T04:17:56.710Z,5.50
2019-05-03T04:20:27.247Z,5.50
2019-05-03T04:22:56.047Z,5.50
2019-05-03T04:25:26.214Z,5.47
2019-05-03T04:27:56.094Z,5.47
2019-05-03T04:30:25.646Z,5.42
2019-05-03T04:32:56.455Z,5.42
2019-05-03T04:35:26.620Z,5.44
2019-05-03T04:37:56.306Z,5.43
2019-05-03T04:40:26.077Z,5.53
2019-05-03T04:42:55.944Z,5.58
2019-05-03T04:45:25.571Z,5.69
2019-05-03T04:47:55.980Z,5.77
2019-05-03T04:50:25.528Z,5.77
2019-05-03T04:52:56.780Z,5.87
2019-05-03T04:55:26.655Z,5.94
2019-05-03T04:57:56.101Z,5.96
2019-05-03T05:00:25.669Z,5.96
2019-05-03T05:02:55.300Z,6.03
2019-05-03T05:05:26.192Z,6.15
2019-05-03T05:07:55.803Z,6.23
2019-05-03T05:10:26.141Z,6.23
2019-05-03T05:12:55.122Z,6.27
2019-05-03T05:15:26.228Z,6.32
2019-05-03T05:17:56.337Z,6.37
2019-05-03T05:20:32.549Z,6.38
2019-05-03T05:23:00.852Z,6.38
2019-05-03T05:25:36.502Z,6.47
2019-05-03T05:28:09.585Z,6.50
2019-05-03T05:30:37.973Z,6.61
2019-05-03T05:33:07.910Z,6.69
2019-05-03T05:35:36.203Z,6.75
2019-05-03T05:38:04.744Z,6.83
2019-05-03T05:40:34.923Z,6.85
2019-05-03T05:43:04.908Z,6.90
2019-05-03T05:45:34.864Z,6.94
2019-05-03T05:48:10.997Z,6.99
2019-05-03T05:50:40.948Z,7.05
2019-05-03T05:53:09.240Z,7.13
2019-05-03T05:55:51.250Z,7.14
2019-05-03T05:58:21.346Z,7.18
2019-05-03T06:00:59.942Z,7.25
2019-05-03T06:03:28.246Z,7.40
2019-05-03T06:05:58.156Z,7.42
2019-05-03T06:08:30.788Z,7.46
2019-05-03T06:11:09.630Z,7.57
2019-05-03T06:13:44.368Z,7.59
2019-05-03T06:16:15.509Z,7.61
2019-05-03T06:18:51.873Z,7.63
2019-05-03T06:21:25.086Z,7.69
2019-05-03T06:23:57.161Z,7.75
2019-05-03T06:26:44.309Z,7.82
2019-05-03T06:29:14.835Z,7.93
2019-05-03T06:31:46.996Z,8.01
2019-05-03T06:34:15.404Z,8.04
2019-05-03T06:36:45.555Z,8.05
2019-05-03T06:39:15.461Z,8.09
2019-05-03T06:41:44.539Z,8.13
2019-05-03T06:44:14.510Z,8.19
2019-05-03T06:46:45.549Z,8.27
2019-05-03T06:49:15.258Z,8.34
2019-05-03T06:51:45.660Z,8.50
2019-05-03T06:54:15.737Z,8.63
2019-05-03T06:56:45.191Z,8.73
2019-05-03T06:59:27.768Z,8.84
2019-05-03T07:01:57.696Z,8.96
2019-05-03T07:04:34.743Z,9.10
2019-05-03T07:07:10.485Z,9.20
2019-05-03T07:09:56.072Z,9.31
2019-05-03T07:12:25.012Z,9.46
2019-05-03T07:14:54.877Z,9.61
2019-05-03T07:17:24.806Z,9.64
2019-05-03T07:19:54.697Z,9.59
2019-05-03T07:22:24.438Z,9.62
2019-05-03T07:24:54.674Z,9.73
2019-05-03T07:27:24.800Z,9.72
2019-05-03T07:29:55.485Z,9.77
2019-05-03T07:32:24.701Z,9.89
2019-05-03T07:34:53.055Z,9.96
2019-05-03T07:37:21.333Z,10.01
2019-05-03T07:39:49.649Z,10.06
2019-05-03T07:42:18.011Z,10.18
2019-05-03T07:44:46.347Z,10.28
2019-05-03T07:47:14.931Z,10.35
2019-05-03T07:49:44.747Z,10.36
2019-05-03T07:52:14.734Z,10.38
2019-05-03T07:54:45.132Z,10.40
2019-05-03T07:57:25.482Z,10.49
2019-05-03T07:59:55.678Z,10.64
2019-05-03T08:02:25.231Z,10.71
2019-05-03T08:04:54.865Z,10.76
2019-05-03T08:07:25.686Z,10.86
2019-05-03T08:09:55.507Z,10.90
2019-05-03T08:12:24.714Z,10.83
2019-05-03T08:14:54.992Z,10.85
2019-05-03T08:17:25.353Z,10.89
2019-05-03T08:19:55.250Z,10.95
2019-05-03T08:22:25.315Z,10.79
2019-05-03T08:24:55.424Z,10.80
2019-05-03T08:27:25.146Z,10.94
2019-05-03T08:29:55.537Z,11.00
2019-05-03T08:32:31.355Z,11.16
2019-05-03T08:35:19.670Z,11.14
2019-05-03T08:37:54.533Z,11.24
2019-05-03T08:40:24.590Z,11.12
2019-05-03T08:42:54.885Z,11.11
2019-05-03T08:45:25.467Z,10.94
2019-05-03T08:47:55.373Z,10.89
2019-05-03T08:50:25.734Z,10.75
2019-05-03T08:52:55.731Z,10.72
2019-05-03T08:55:25.018Z,10.82
2019-05-03T08:57:55.081Z,11.09
2019-05-03T09:00:25.223Z,11.32
2019-05-03T09:02:54.874Z,11.46
2019-05-03T09:05:25.061Z,11.50
2019-05-03T09:07:54.884Z,11.39
2019-05-03T09:10:25.088Z,11.41
2019-05-03T09:13:07.017Z,11.38
2019-05-03T09:15:36.097Z,11.39
2019-05-03T09:18:04.931Z,11.67
2019-05-03T09:20:35.413Z,11.94
2019-05-03T09:23:05.378Z,11.89
2019-05-03T09:25:35.573Z,11.50
2019-05-03T09:28:04.752Z,11.38
2019-05-03T09:30:35.560Z,11.31
2019-05-03T09:33:06.014Z,11.29
2019-05-03T09:35:35.895Z,11.48
2019-05-03T09:38:05.695Z,11.50
2019-05-03T09:40:35.249Z,11.70
2019-05-03T09:43:04.513Z,11.97
2019-05-03T09:45:35.111Z,12.17
2019-05-03T09:48:03.030Z,12.35
2019-05-03T09:50:31.954Z,12.38
2019-05-03T09:53:00.614Z,12.34
2019-05-03T09:55:33.033Z,12.34
2019-05-03T09:58:01.301Z,12.19
2019-05-03T10:00:29.600Z,11.99
2019-05-03T10:02:57.949Z,12.15
2019-05-03T10:05:26.338Z,12.42
2019-05-03T10:07:54.688Z,12.62
2019-05-03T10:10:24.816Z,12.84
2019-05-03T10:12:54.958Z,12.88
2019-05-03T10:15:34.797Z,12.57
2019-05-03T10:18:10.649Z,12.72
2019-05-03T10:20:34.870Z,13.06
2019-05-03T10:23:21.419Z,13.41
2019-05-03T10:25:49.804Z,13.46
2019-05-03T10:28:18.605Z,13.20
2019-05-03T10:30:46.981Z,13.11
2019-05-03T10:33:22.873Z,13.07
2019-05-03T10:35:51.327Z,12.86
2019-05-03T10:38:19.657Z,12.78
2019-05-03T10:40:48.154Z,13.01
2019-05-03T10:43:16.465Z,13.06
2019-05-03T10:45:45.059Z,13.03
2019-05-03T10:48:15.458Z,12.80
2019-05-03T10:50:45.205Z,12.65
2019-05-03T10:53:15.456Z,12.42
2019-05-03T10:55:45.379Z,12.34
2019-05-03T10:58:18.307Z,12.45
2019-05-03T11:00:52.882Z,12.87
2019-05-03T11:03:19.038Z,13.38
2019-05-03T11:05:48.512Z,13.70
2019-05-03T11:08:16.813Z,13.79
2019-05-03T11:10:45.090Z,13.83
2019-05-03T11:13:15.413Z,13.87
2019-05-03T11:15:44.433Z,13.77
2019-05-03T11:18:14.648Z,13.70
2019-05-03T11:20:45.315Z,13.50
2019-05-03T11:23:14.634Z,13.25
2019-05-03T11:25:45.058Z,13.01
2019-05-03T11:28:14.892Z,12.81
2019-05-03T11:30:55.124Z,12.64
2019-05-03T11:33:15.757Z,12.66
2019-05-03T11:35:48.413Z,12.70
2019-05-03T11:38:18.459Z,12.83
2019-05-03T11:40:46.765Z,12.98
2019-05-03T11:43:15.456Z,13.15
2019-05-03T11:45:44.913Z,13.02
2019-05-03T11:48:14.804Z,12.91
2019-05-03T11:50:45.310Z,12.90
2019-05-03T11:53:14.515Z,13.03
2019-05-03T11:55:46.113Z,12.94
2019-05-03T11:58:20.354Z,12.78
2019-05-03T12:00:50.536Z,12.60
2019-05-03T12:03:26.262Z,12.58
2019-05-03T12:05:56.238Z,12.68
2019-05-03T12:08:25.304Z,12.39
2019-05-03T12:11:00.627Z,12.11
2019-05-03T12:13:25.691Z,12.02
2019-05-03T12:15:55.276Z,11.86
2019-05-03T12:18:25.178Z,11.90
2019-05-03T12:20:56.918Z,11.95
2019-05-03T12:23:25.887Z,12.12
2019-05-03T12:25:55.433Z,12.47
2019-05-03T12:28:25.687Z,13.01
2019-05-03T12:30:54.296Z,13.27
2019-05-03T12:33:22.634Z,13.09
2019-05-03T12:35:51.093Z,13.30
2019-05-03T12:38:19.476Z,13.39
2019-05-03T12:40:47.779Z,13.18
2019-05-03T12:43:16.074Z,13.11
2019-05-03T12:45:44.537Z,13.07
2019-05-03T12:48:12.838Z,13.09
2019-05-03T12:50:41.358Z,12.95
2019-05-03T12:53:10.198Z,13.25
2019-05-03T12:55:38.656Z,13.78
2019-05-03T12:58:06.981Z,14.07
2019-05-03T13:00:49.347Z,14.42
2019-05-03T13:03:19.280Z,14.60
2019-05-03T13:05:48.184Z,15.03
2019-05-03T13:08:40.145Z,15.30
2019-05-03T13:11:08.568Z,15.70
2019-05-03T13:13:36.857Z,15.48
2019-05-03T13:16:05.685Z,15.19
2019-05-03T13:18:35.109Z,14.94
2019-05-03T13:21:05.841Z,14.60
2019-05-03T13:23:35.345Z,14.34
2019-05-03T13:26:05.539Z,14.03
2019-05-03T13:28:34.469Z,13.69
2019-05-03T13:31:02.785Z,13.40
2019-05-03T13:33:31.054Z,13.34
2019-05-03T13:35:59.360Z,13.44
2019-05-03T13:38:27.645Z,13.46
2019-05-03T13:40:55.971Z,13.25
2019-05-03T13:43:24.370Z,13.21
2019-05-03T13:45:52.841Z,13.40
2019-05-03T13:48:22.341Z,13.61
2019-05-03T13:50:51.944Z,13.65
2019-05-03T13:53:20.251Z,13.65
2019-05-03T13:55:48.531Z,13.70
2019-05-03T13:58:16.844Z,13.75
2019-05-03T14:00:45.504Z,13.60
2019-05-03T14:03:15.212Z,13.45
2019-05-03T14:05:44.616Z,13.32
2019-05-03T14:08:15.420Z,12.92
2019-05-03T14:10:45.520Z,12.49
2019-05-03T14:13:13.308Z,12.35
2019-05-03T14:15:41.770Z,12.09
2019-05-03T14:18:10.166Z,11.95
2019-05-03T14:20:40.097Z,11.91
2019-05-03T14:23:08.378Z,11.78
2019-05-03T14:25:36.684Z,11.74
2019-05-03T14:28:05.549Z,11.76
2019-05-03T14:30:34.689Z,11.79
2019-05-03T14:33:05.057Z,11.92
2019-05-03T14:35:34.632Z,12.00
2019-05-03T14:38:05.745Z,12.01
2019-05-03T14:40:33.176Z,12.06
2019-05-03T14:43:01.523Z,12.03
2019-05-03T14:45:29.841Z,11.96
2019-05-03T14:47:58.167Z,11.84
2019-05-03T14:50:26.593Z,11.72
2019-05-03T14:52:57.069Z,11.54
2019-05-03T14:55:26.602Z,11.53
2019-05-03T14:58:00.008Z,11.41
2019-05-03T15:00:29.931Z,11.36
2019-05-03T15:02:59.863Z,11.38
2019-05-03T15:05:28.166Z,11.36
2019-05-03T15:07:56.469Z,11.33
2019-05-03T15:10:24.761Z,11.38
2019-05-03T15:12:53.085Z,11.39
2019-05-03T15:15:21.437Z,11.34
2019-05-03T15:17:49.781Z,11.40
2019-05-03T15:20:18.098Z,11.45
2019-05-03T15:22:46.875Z,11.36
2019-05-03T15:25:15.211Z,11.34
2019-05-03T15:27:44.847Z,11.34
2019-05-03T15:30:15.357Z,11.30
2019-05-03T15:32:54.777Z,11.30
2019-05-03T15:35:15.193Z,11.36
2019-05-03T15:37:45.388Z,11.34
2019-05-03T15:40:15.451Z,11.32
2019-05-03T15:42:45.686Z,11.30
2019-05-03T15:45:25.223Z,11.30
2019-05-03T15:47:57.959Z,11.21
2019-05-03T15:50:27.108Z,11.14
2019-05-03T15:52:55.439Z,11.03
2019-05-03T15:55:26.631Z,10.71
2019-05-03T15:57:55.312Z,10.54
2019-05-03T16:00:24.509Z,10.56
2019-05-03T16:02:54.606Z,10.48
2019-05-03T16:05:25.089Z,10.26
2019-05-03T16:07:55.144Z,10.17
2019-05-03T16:10:24.904Z,10.14
2019-05-03T16:12:54.559Z,10.00
2019-05-03T16:15:24.593Z,10.00
2019-05-03T16:17:54.806Z,9.99
2019-05-03T16:20:25.152Z,9.90
2019-05-03T16:22:54.414Z,9.89
2019-05-03T16:25:25.122Z,9.93
2019-05-03T16:27:55.404Z,9.79
2019-05-03T16:30:25.667Z,9.72
2019-05-03T16:32:55.364Z,9.72
2019-05-03T16:35:25.549Z,9.78
2019-05-03T16:37:54.462Z,9.84
2019-05-03T16:40:25.150Z,9.92
2019-05-03T16:42:53.009Z,10.00
2019-05-03T16:45:22.166Z,10.07
2019-05-03T16:47:52.731Z,10.09
2019-05-03T16:50:20.566Z,10.07
2019-05-03T16:52:48.839Z,10.10
2019-05-03T16:55:17.161Z,10.03
2019-05-03T16:57:45.480Z,10.09
2019-05-03T17:00:15.352Z,10.17
2019-05-03T17:02:44.334Z,10.22
2019-05-03T17:05:20.086Z,10.15
2019-05-03T17:07:56.143Z,10.05
2019-05-03T17:10:26.063Z,10.02
2019-05-03T17:12:56.793Z,10.00
2019-05-03T17:15:24.991Z,9.95
2019-05-03T17:17:55.000Z,9.90
2019-05-03T17:20:25.336Z,9.96
2019-05-03T17:22:55.391Z,9.99
2019-05-03T17:25:24.545Z,9.88
2019-05-03T17:27:54.703Z,9.91
2019-05-03T17:30:32.677Z,9.87
2019-05-03T17:32:55.012Z,9.84
2019-05-03T17:35:25.128Z,9.74
2019-05-03T17:37:54.641Z,9.63
2019-05-03T17:40:41.220Z,9.61
2019-05-03T17:43:22.877Z,9.65
2019-05-03T17:45:54.888Z,9.71
2019-05-03T17:48:22.914Z,9.62
2019-05-03T17:50:51.243Z,9.58
2019-05-03T17:53:38.855Z,9.58
2019-05-03T17:56:08.840Z,9.51
2019-05-03T17:58:38.756Z,9.42
2019-05-03T18:01:11.472Z,9.38
2019-05-03T18:03:41.521Z,9.31
2019-05-03T18:06:19.795Z,9.33
2019-05-03T18:08:50.033Z,9.33
2019-05-03T18:11:22.390Z,9.39
2019-05-03T18:13:55.182Z,9.22
2019-05-03T18:16:24.449Z,9.16
2019-05-03T18:18:54.776Z,9.03
2019-05-03T18:21:24.432Z,8.93
2019-05-03T18:23:54.524Z,8.88
2019-05-03T18:26:24.969Z,8.86
2019-05-03T18:28:54.961Z,8.82
2019-05-03T18:31:25.048Z,8.75
2019-05-03T18:33:54.721Z,8.70
2019-05-03T18:36:25.105Z,8.64
2019-05-03T18:38:55.274Z,8.61
2019-05-03T18:41:25.472Z,8.61
2019-05-03T18:43:58.100Z,8.57
2019-05-03T18:46:29.011Z,8.57
2019-05-03T18:49:02.056Z,8.51
2019-05-03T18:51:30.354Z,8.43
2019-05-03T18:53:58.704Z,8.44
2019-05-03T18:56:27.024Z,8.40
2019-05-03T18:58:55.384Z,8.37
2019-05-03T19:01:25.325Z,8.37
2019-05-03T19:03:55.534Z,8.35
2019-05-03T19:06:24.384Z,8.28
2019-05-03T19:09:14.486Z,8.30
2019-05-03T19:11:47.856Z,8.23
2019-05-03T19:14:17.796Z,8.30
2019-05-03T19:16:56.747Z,8.28
2019-05-03T19:19:26.680Z,8.29
2019-05-03T19:21:56.034Z,8.28
2019-05-03T19:24:24.663Z,8.21
2019-05-03T19:26:54.362Z,8.19
2019-05-03T19:29:24.936Z,8.17
2019-05-03T19:31:55.153Z,7.97
2019-05-03T19:34:24.274Z,7.70
2019-05-03T19:36:54.728Z,7.56
2019-05-03T19:39:25.102Z,7.51
2019-05-03T19:41:55.160Z,7.45
2019-05-03T19:44:23.459Z,7.37
2019-05-03T19:46:52.554Z,7.32
2019-05-03T19:49:20.912Z,7.26
2019-05-03T19:51:49.190Z,7.30
2019-05-03T19:54:17.730Z,7.34
2019-05-03T19:56:46.868Z,7.27
2019-05-03T19:59:17.058Z,7.28
2019-05-03T20:01:46.990Z,7.30
2019-05-03T20:04:25.910Z,7.34
2019-05-03T20:07:07.681Z,7.39
2019-05-03T20:09:35.996Z,7.37
2019-05-03T20:12:04.647Z,7.34
2019-05-03T20:14:32.986Z,7.31
2019-05-03T20:17:04.059Z,7.30
2019-05-03T20:19:31.364Z,7.26
2019-05-03T20:21:59.643Z,7.21
2019-05-03T20:24:28.064Z,7.20
2019-05-03T20:26:56.709Z,7.19
2019-05-03T20:29:25.731Z,7.16
2019-05-03T20:31:55.207Z,7.14
2019-05-03T20:34:24.875Z,7.05
2019-05-03T20:36:54.864Z,7.07
2019-05-03T20:39:25.458Z,6.99
2019-05-03T20:41:55.016Z,6.96
2019-05-03T20:44:28.740Z,6.94
2019-05-03T20:46:58.852Z,6.94
2019-05-03T20:49:27.412Z,6.96
2019-05-03T20:51:55.934Z,6.98
2019-05-03T20:54:24.248Z,7.00
2019-05-03T20:56:54.574Z,7.03
2019-05-03T20:59:22.684Z,7.03
2019-05-03T21:01:51.017Z,7.03
2019-05-03T21:04:19.324Z,7.05
2019-05-03T21:06:48.108Z,7.06
2019-05-03T21:09:16.571Z,7.05
2019-05-03T21:11:45.456Z,7.07
2019-05-03T21:14:15.593Z,7.11
2019-05-03T21:16:48.781Z,7.10
2019-05-03T21:19:35.181Z,7.11
2019-05-03T21:22:08.174Z,7.12
2019-05-03T21:24:38.267Z,7.09
2019-05-03T21:27:07.123Z,7.03
2019-05-03T21:29:37.011Z,7.03
2019-05-03T21:32:05.293Z,7.03
2019-05-03T21:34:34.583Z,7.01
2019-05-03T21:37:03.101Z,6.98
2019-05-03T21:39:31.372Z,6.97
2019-05-03T21:41:59.701Z,6.98
2019-05-03T21:44:31.643Z,6.90
2019-05-03T21:47:01.550Z,6.78
2019-05-03T21:49:31.472Z,6.62
2019-05-03T21:52:00.446Z,6.47
2019-05-03T21:54:28.735Z,6.39
2019-05-03T21:56:58.067Z,6.36
2019-05-03T21:59:26.695Z,6.36
2019-05-03T22:01:55.294Z,6.39
2019-05-03T22:04:24.860Z,6.42
2019-05-03T22:06:54.882Z,6.43
2019-05-03T22:09:23.351Z,6.46
2019-05-03T22:11:52.250Z,6.48
2019-05-03T22:14:24.395Z,6.48
2019-05-03T22:17:04.568Z,6.52
2019-05-03T22:19:34.380Z,6.52
2019-05-03T22:22:21.282Z,6.49
2019-05-03T22:24:51.058Z,6.45
2019-05-03T22:27:19.701Z,6.45
2019-05-03T22:29:48.096Z,6.44
2019-05-03T22:32:17.264Z,6.43
2019-05-03T22:34:45.552Z,6.40
2019-05-03T22:37:14.305Z,6.39
2019-05-03T22:39:45.489Z,6.38
2019-05-03T22:42:14.834Z,6.40
2019-05-03T22:44:44.821Z,6.36
2019-05-03T22:47:14.743Z,6.38
2019-05-03T22:49:45.636Z,6.37
2019-05-03T22:52:15.360Z,6.35
2019-05-03T22:54:45.167Z,6.34
2019-05-03T22:57:15.288Z,6.36
2019-05-03T22:59:44.931Z,6.39
2019-05-03T23:02:16.870Z,6.41
2019-05-03T23:04:44.783Z,6.44
2019-05-03T23:07:14.902Z,6.47
2019-05-03T23:09:44.643Z,6.44
2019-05-03T23:12:13.245Z,6.45
2019-05-03T23:14:41.753Z,6.46
2019-05-03T23:17:10.038Z,6.48
2019-05-03T23:19:40.521Z,6.48
2019-05-03T23:22:10.557Z,6.48
2019-05-03T23:24:38.857Z,6.46
2019-05-03T23:27:07.307Z,6.46
2019-05-03T23:29:35.616Z,6.44
2019-05-03T23:32:04.685Z,6.42
2019-05-03T23:34:35.175Z,6.36
2019-05-03T23:37:05.251Z,6.36
2019-05-03T23:39:33.404Z,6.42
2019-05-03T23:42:02.190Z,6.41
2019-05-03T23:44:30.610Z,6.38
2019-05-03T23:47:14.572Z,6.36
2019-05-03T23:49:44.595Z,6.32
2019-05-03T23:52:25.230Z,6.32
2019-05-03T23:54:54.893Z,6.25
2019-05-03T23:57:25.164Z,6.25
2019-05-03T23:59:54.991Z,6.24
